الصفحة الرئيسية
METAR-TAF:

METAR-TAF

مطار :

مطار القامشلي

القامشلي, سوريا

دائرة عرض: 37-03N, خط طول: 041-13E, ارتفاع: 455 متر

مراقبة الطقس الحالي

تاريخ ووقت الإصدار 4ساعات و 22 دقيقة قبل الساعة 00:00UTC
ريح 8 عقدة من الشمال
درجة الحرارة 6°درجة مئوية
الرطوبة 22%
ضغط 1022 hPa
الرؤية 10 كم أو أكثر
الغيوم لا تقل 1500 م ولا وجود لمزنة ركامية السحاب الأسود

METAR: OSKL 290000Z 01008KT CAVOK 06/M14 Q1022

زمن: 06:22 (04:22 UTC)


TAF: مفقودة

أرصاد الطقس والتوقعات من أكثر من 4000 مطار (تقارير الطقس للمطار METAR والتنبؤ بالطقس بالمطارTAF).

المحطات المتاحة هي النقط الصفراء والحمراء على الخريطة.

حرك المؤشر فوق النقطة لمعرفة اسم المحطة.

ثم انقر لمعرفة أرصاد وتوقعات الطقس.

لتغيير الخارطة: اضغط على الأزرار الخضراء مع رمز الصليب الأسود للتكبير. على الزر الأخضر مع شرطة للتصغير، أو على الأسهم الخضراء للخرائط المجاورة.


METAR-TAF: